Time;durP1;ratioP1;P1;durP2;ratioP2;P2;SDS_P1;SDS_P2;PMS_P1;PMS_P2;Temp;Humidity;BMP_temperature;BMP_pressure;BME280_temperature;BME280_humidity;BME280_pressure;Samples;Min_cycle;Max_cycle;Signal;HPM_P1;HPM_P2
2023/07/23 00:01:22;;;;;;;11.40;3.88;;;;;;;14.31;100.00;99897.25;5034374;28;20049;-64
2023/07/23 00:03:49;;;;;;;12.55;4.07;;;;;;;14.20;100.00;99904.09;5031469;28;20045;-64
2023/07/23 00:06:17;;;;;;;12.07;4.60;;;;;;;14.16;100.00;99904.38;5036218;28;20491;-64
2023/07/23 00:08:43;;;;;;;10.57;3.72;;;;;;;14.16;100.00;99904.38;5036212;28;20084;-64
2023/07/23 00:11:10;;;;;;;8.50;3.58;;;;;;;14.18;100.00;99900.72;5033511;28;20128;-64
2023/07/23 00:13:37;;;;;;;9.50;3.83;;;;;;;14.15;100.00;99908.81;5042971;28;20064;-64
2023/07/23 00:16:04;;;;;;;12.82;3.92;;;;;;;14.09;100.00;99914.44;5042999;28;20107;-64
2023/07/23 00:18:31;;;;;;;11.13;4.55;;;;;;;13.98;100.00;99912.53;5018593;28;20053;-65
2023/07/23 00:20:58;;;;;;;9.50;3.80;;;;;;;14.05;100.00;99911.19;5034106;28;20041;-65
2023/07/23 00:23:25;;;;;;;11.63;4.75;;;;;;;13.98;100.00;99904.63;5034349;28;20495;-65
2023/07/23 00:25:51;;;;;;;9.68;4.28;;;;;;;13.89;100.00;99894.69;5044945;28;20052;-65
2023/07/23 00:28:18;;;;;;;9.32;3.47;;;;;;;13.84;100.00;99902.03;5040300;28;20053;-64
2023/07/23 00:30:44;;;;;;;9.95;4.15;;;;;;;13.94;100.00;99897.88;5032219;28;20045;-64
2023/07/23 00:33:11;;;;;;;9.70;3.63;;;;;;;13.77;100.00;99898.13;5036457;28;20056;-65
2023/07/23 00:35:38;;;;;;;9.52;3.60;;;;;;;13.78;100.00;99899.81;5035924;28;20045;-64
2023/07/23 00:38:05;;;;;;;9.88;3.63;;;;;;;13.81;100.00;99892.56;5034049;28;20418;-65
2023/07/23 00:40:31;;;;;;;8.88;3.35;;;;;;;13.69;100.00;99901.25;5031774;28;20411;-65
2023/07/23 00:42:58;;;;;;;13.23;3.75;;;;;;;13.69;100.00;99896.00;5032205;28;20051;-65
2023/07/23 00:45:25;;;;;;;8.52;2.85;;;;;;;13.75;100.00;99892.97;5014522;28;20057;-65
2023/07/23 00:47:52;;;;;;;8.32;3.15;;;;;;;13.78;100.00;99892.78;5032521;28;20690;-64
2023/07/23 00:50:19;;;;;;;10.90;3.95;;;;;;;13.85;100.00;99885.31;5028506;28;20097;-65
2023/07/23 00:52:46;;;;;;;9.57;3.83;;;;;;;13.82;100.00;99877.63;5032730;28;20057;-65
2023/07/23 00:55:13;;;;;;;10.13;3.60;;;;;;;13.76;100.00;99878.03;5020293;28;20161;-65
2023/07/23 00:57:40;;;;;;;9.27;3.30;;;;;;;13.71;100.00;99894.09;5031634;28;20050;-64
2023/07/23 01:00:07;;;;;;;7.50;3.33;;;;;;;13.60;100.00;99871.13;5027327;28;20420;-64
2023/07/23 01:02:34;;;;;;;8.02;3.05;;;;;;;13.72;100.00;99880.00;5028670;28;20132;-65
2023/07/23 01:05:02;;;;;;;11.95;4.72;;;;;;;13.56;100.00;99864.34;5032228;28;20057;-64
2023/07/23 01:07:31;;;;;;;8.70;3.35;;;;;;;13.71;100.00;99880.97;5027569;28;20056;-64
2023/07/23 01:09:59;;;;;;;10.85;3.72;;;;;;;13.68;100.00;99870.63;5013517;28;20549;-65
2023/07/23 01:12:26;;;;;;;9.55;3.10;;;;;;;13.64;100.00;99872.59;5030829;28;20063;-65
2023/07/23 01:14:53;;;;;;;14.10;4.35;;;;;;;13.56;100.00;99863.50;5032446;28;20049;-65
2023/07/23 01:17:21;;;;;;;8.25;3.45;;;;;;;13.50;100.00;99869.19;5032025;28;20439;-64
2023/07/23 01:19:59;;;;;;;7.05;2.88;;;;;;;13.44;100.00;99871.25;5029182;28;20506;-65
2023/07/23 01:22:26;;;;;;;9.68;3.47;;;;;;;13.38;100.00;99863.75;5024323;28;20487;-65
2023/07/23 01:24:52;;;;;;;9.52;3.10;;;;;;;13.51;100.00;99868.22;5031446;28;20054;-65
2023/07/23 01:27:19;;;;;;;9.52;3.72;;;;;;;13.48;100.00;99861.38;5031209;28;20053;-65
2023/07/23 01:29:46;;;;;;;9.60;3.75;;;;;;;13.36;100.00;99856.91;5030358;28;20467;-65
2023/07/23 01:32:13;;;;;;;10.45;3.53;;;;;;;13.45;100.00;99858.94;5030748;28;20057;-64
2023/07/23 01:34:39;;;;;;;9.20;3.60;;;;;;;13.36;100.00;99856.91;5026951;28;20426;-65
2023/07/23 01:37:08;;;;;;;8.85;3.72;;;;;;;13.36;100.00;99864.78;5030787;28;20049;-64
2023/07/23 01:39:35;;;;;;;9.88;3.58;;;;;;;13.32;100.00;99865.94;5013189;28;20103;-64
2023/07/23 01:42:03;;;;;;;9.45;3.75;;;;;;;13.30;100.00;99858.09;5029759;28;20512;-65
2023/07/23 01:44:30;;;;;;;7.78;2.92;;;;;;;13.34;100.00;99859.63;5030977;28;20056;-65
2023/07/23 01:46:56;;;;;;;9.43;3.58;;;;;;;13.27;100.00;99856.50;5031741;28;20054;-65
2023/07/23 01:49:23;;;;;;;8.00;3.33;;;;;;;13.28;100.00;99860.81;5032126;28;20068;-65
2023/07/23 01:51:51;;;;;;;8.65;3.58;;;;;;;13.25;100.00;99854.91;5029533;28;20073;-65
2023/07/23 01:54:18;;;;;;;9.05;3.33;;;;;;;13.25;100.00;99855.75;5013364;28;20155;-65
2023/07/23 01:56:45;;;;;;;9.32;3.85;;;;;;;13.38;100.00;99847.97;5030709;28;20491;-65
2023/07/23 01:59:12;;;;;;;7.95;3.08;;;;;;;13.41;100.00;99854.81;5030880;28;20049;-65
2023/07/23 02:01:39;;;;;;;9.73;3.13;;;;;;;13.47;100.00;99859.69;5000363;28;20463;-65
2023/07/23 02:04:05;;;;;;;9.30;3.42;;;;;;;13.44;100.00;99852.84;5029604;28;20068;-64
2023/07/23 02:06:32;;;;;;;12.25;3.97;;;;;;;13.42;100.00;99854.72;5031684;28;20052;-64
2023/07/23 02:08:58;;;;;;;10.88;4.00;;;;;;;13.43;100.00;99850.31;5031217;28;21956;-64
2023/07/23 02:11:25;;;;;;;9.95;3.80;;;;;;;13.45;100.00;99846.63;5021620;28;20454;-65
2023/07/23 02:13:52;;;;;;;9.77;3.50;;;;;;;13.50;100.00;99846.34;5030346;28;20080;-64
2023/07/23 02:16:20;;;;;;;10.20;4.10;;;;;;;13.42;100.00;99844.22;5031241;28;20057;-64
2023/07/23 02:18:47;;;;;;;8.75;3.92;;;;;;;13.41;100.00;99847.78;5031600;28;20079;-64
2023/07/23 02:21:14;;;;;;;11.68;4.10;;;;;;;13.36;100.00;99843.75;5017084;28;20492;-65
2023/07/23 02:23:43;;;;;;;8.45;3.70;;;;;;;13.41;100.00;99850.41;5030490;28;20056;-64
2023/07/23 02:26:09;;;;;;;9.95;3.95;;;;;;;13.48;100.00;99850.88;5030025;28;20111;-65
2023/07/23 02:28:40;;;;;;;10.30;3.67;;;;;;;13.39;100.00;99846.19;5030079;28;20045;-64
2023/07/23 02:31:07;;;;;;;7.93;3.00;;;;;;;13.43;100.00;99852.94;5029283;28;20414;-65
2023/07/23 02:33:34;;;;;;;9.43;3.65;;;;;;;13.38;100.00;99855.84;5031115;28;20056;-65
2023/07/23 02:36:01;;;;;;;10.57;4.18;;;;;;;13.44;100.00;99849.38;5030359;28;20488;-64
2023/07/23 02:38:28;;;;;;;10.05;4.07;;;;;;;13.40;100.00;99845.25;5030275;28;20116;-64
2023/07/23 02:40:56;;;;;;;10.05;3.75;;;;;;;13.32;100.00;99837.84;5017483;28;20149;-64
2023/07/23 02:43:23;;;;;;;9.52;3.03;;;;;;;13.29;100.00;99833.59;5025877;28;20334;-64
2023/07/23 02:45:50;;;;;;;12.05;4.07;;;;;;;13.43;100.00;99832.75;5029678;28;20510;-64
2023/07/23 02:48:16;;;;;;;11.20;3.95;;;;;;;13.52;100.00;99833.09;5029629;28;20053;-65
2023/07/23 02:50:43;;;;;;;10.18;3.67;;;;;;;13.38;100.00;99840.06;5019013;28;20046;-65
2023/07/23 02:53:10;;;;;;;9.60;3.40;;;;;;;13.34;100.00;99820.19;5022465;28;20050;-65
2023/07/23 02:55:36;;;;;;;8.80;3.42;;;;;;;13.40;100.00;99827.69;5029823;28;20132;-65
2023/07/23 02:58:03;;;;;;;13.18;4.28;;;;;;;13.45;100.00;99830.00;5029025;28;20061;-65
2023/07/23 03:00:30;;;;;;;9.30;3.55;;;;;;;13.34;100.00;99838.59;5023038;28;20045;-65
2023/07/23 03:02:57;;;;;;;9.02;3.63;;;;;;;13.41;100.00;99833.78;5029122;28;20048;-65
2023/07/23 03:05:25;;;;;;;8.90;3.63;;;;;;;13.36;100.00;99833.25;5030311;28;20510;-65
2023/07/23 03:07:52;;;;;;;9.93;3.63;;;;;;;13.35;100.00;99823.66;5030248;28;20047;-65
2023/07/23 03:10:19;;;;;;;9.13;3.42;;;;;;;13.35;100.00;99837.66;5029814;28;20060;-65
2023/07/23 03:12:46;;;;;;;10.13;3.33;;;;;;;13.31;100.00;99830.88;5030017;28;20049;-65
2023/07/23 03:15:13;;;;;;;10.35;3.55;;;;;;;13.37;100.00;99845.44;5028837;28;20049;-65
2023/07/23 03:17:39;;;;;;;8.20;3.10;;;;;;;13.34;100.00;99835.97;5029418;28;20050;-64
2023/07/23 03:20:08;;;;;;;7.53;3.13;;;;;;;13.25;100.00;99834.72;5024612;28;20045;-64
2023/07/23 03:22:39;;;;;;;9.70;4.05;;;;;;;13.33;100.00;99836.06;5029236;28;20499;-64
2023/07/23 03:25:06;;;;;;;8.05;3.83;;;;;;;13.37;100.00;99843.66;5012514;28;20054;-64
2023/07/23 03:27:33;;;;;;;10.30;3.63;;;;;;;13.40;100.00;99839.97;5030124;28;20049;-64
2023/07/23 03:30:00;;;;;;;9.07;3.13;;;;;;;13.38;100.00;99841.88;5026208;28;20456;-64
2023/07/23 03:32:27;;;;;;;7.80;3.13;;;;;;;13.42;100.00;99844.22;5024122;28;20057;-64
2023/07/23 03:34:53;;;;;;;8.38;3.60;;;;;;;13.26;100.00;99839.06;5013684;28;20057;-64
2023/07/23 03:37:20;;;;;;;8.82;3.63;;;;;;;13.38;100.00;99837.44;5024396;28;20069;-64
2023/07/23 03:39:47;;;;;;;9.05;3.45;;;;;;;13.37;100.00;99841.03;5012701;28;20513;-64
2023/07/23 03:42:13;;;;;;;9.13;3.55;;;;;;;13.21;100.00;99820.09;5020817;28;20053;-64
2023/07/23 03:44:40;;;;;;;8.52;3.05;;;;;;;13.28;100.00;99846.84;5025147;28;20056;-64
2023/07/23 03:47:11;;;;;;;9.75;3.90;;;;;;;13.12;100.00;99836.44;5020015;28;20049;-64
2023/07/23 03:49:37;;;;;;;12.50;3.78;;;;;;;13.21;100.00;99842.88;5013899;28;20057;-64
2023/07/23 03:52:05;;;;;;;8.73;3.65;;;;;;;13.27;100.00;99842.53;5018194;28;20487;-66
2023/07/23 03:54:32;;;;;;;8.27;3.33;;;;;;;13.29;100.00;99836.22;5029070;28;20410;-65
2023/07/23 03:56:59;;;;;;;9.07;3.78;;;;;;;13.25;100.00;99844.41;5030141;28;20052;-65
2023/07/23 03:59:34;;;;;;;10.23;3.80;;;;;;;13.12;100.00;99831.19;5028854;28;20053;-65
2023/07/23 04:02:01;;;;;;;9.82;3.92;;;;;;;13.24;100.00;99845.34;5028554;28;20088;-65
2023/07/23 04:04:28;;;;;;;9.85;4.05;;;;;;;13.20;100.00;99838.59;5028230;28;20199;-65
2023/07/23 04:06:55;;;;;;;8.23;3.60;;;;;;;13.22;100.00;99845.44;5029549;28;20069;-65
2023/07/23 04:09:22;;;;;;;8.57;3.40;;;;;;;13.29;100.00;99841.47;5012344;28;20052;-65
2023/07/23 04:11:48;;;;;;;9.05;3.70;;;;;;;13.27;100.00;99842.53;5025755;28;20100;-65
2023/07/23 04:14:15;;;;;;;12.45;3.42;;;;;;;13.36;100.00;99843.75;5022829;28;20080;-64
2023/07/23 04:16:42;;;;;;;9.15;3.70;;;;;;;13.38;100.00;99847.13;5011222;28;20067;-64
2023/07/23 04:19:09;;;;;;;8.95;3.60;;;;;;;13.21;100.00;99835.88;5015632;28;20068;-65
2023/07/23 04:21:35;;;;;;;9.52;3.70;;;;;;;13.20;100.00;99849.09;5029717;28;20483;-65
2023/07/23 04:24:02;;;;;;;10.18;4.25;;;;;;;13.34;100.00;99858.78;5027014;28;20046;-65
2023/07/23 04:26:30;;;;;;;8.00;3.53;;;;;;;13.25;100.00;99850.50;5024049;28;20132;-65
2023/07/23 04:28:57;;;;;;;9.93;4.13;;;;;;;13.13;100.00;99847.81;5032022;28;20460;-65
2023/07/23 04:31:24;;;;;;;8.55;3.22;;;;;;;13.29;100.00;99851.16;5026590;28;20056;-65
2023/07/23 04:33:52;;;;;;;11.18;3.45;;;;;;;13.32;100.00;99847.53;5032964;28;20045;-65
2023/07/23 04:36:18;;;;;;;9.35;4.00;;;;;;;13.21;100.00;99845.50;5015553;28;20361;-64
2023/07/23 04:38:46;;;;;;;8.52;3.25;;;;;;;13.75;100.00;99845.59;5032970;28;20053;-65
2023/07/23 04:41:13;;;;;;;9.73;4.57;;;;;;;13.56;100.00;99843.31;5019563;28;20049;-65
2023/07/23 04:43:41;;;;;;;8.98;3.95;;;;;;;13.29;100.00;99843.25;5008941;28;20514;-65
2023/07/23 04:46:08;;;;;;;8.25;3.42;;;;;;;13.37;100.00;99843.66;5032858;28;20046;-65
2023/07/23 04:48:36;;;;;;;7.95;3.22;;;;;;;13.44;100.00;99850.22;5032417;28;20058;-65
2023/07/23 04:51:05;;;;;;;10.20;4.30;;;;;;;13.22;100.00;99837.53;5027745;28;20144;-65
2023/07/23 04:53:33;;;;;;;7.18;3.08;;;;;;;13.32;100.00;99850.16;5032632;28;20050;-65
2023/07/23 04:56:02;;;;;;;9.73;3.80;;;;;;;13.27;100.00;99858.28;5032382;28;20084;-65
2023/07/23 04:58:30;;;;;;;8.82;3.88;;;;;;;13.27;100.00;99853.88;5032281;28;20099;-65
2023/07/23 05:00:58;;;;;;;7.93;3.20;;;;;;;13.38;100.00;99857.66;5032534;28;20415;-65
2023/07/23 05:03:25;;;;;;;9.18;3.78;;;;;;;13.44;100.00;99844.13;5028701;28;20064;-65
2023/07/23 05:05:53;;;;;;;8.85;3.35;;;;;;;13.55;100.00;99849.53;5011371;28;20480;-64
2023/07/23 05:08:21;;;;;;;8.75;3.22;;;;;;;13.60;100.00;99849.25;5027614;28;20053;-65
2023/07/23 05:10:48;;;;;;;9.23;3.38;;;;;;;13.57;100.00;99852.06;5023660;28;20053;-65
2023/07/23 05:13:15;;;;;;;8.45;3.70;;;;;;;13.48;100.00;99858.75;5021511;28;20053;-65
2023/07/23 05:15:42;;;;;;;8.52;3.85;;;;;;;13.59;100.00;99853.63;5019459;28;20049;-65
2023/07/23 05:18:09;;;;;;;8.45;2.90;;;;;;;13.66;100.00;99854.09;5023459;28;20054;-65
2023/07/23 05:20:35;;;;;;;9.80;3.13;;;;;;;13.65;100.00;99865.53;5022538;28;20428;-65
2023/07/23 05:23:02;;;;;;;7.43;3.08;;;;;;;13.58;100.00;99854.59;5027266;28;20494;-65
2023/07/23 05:25:30;;;;;;;9.35;3.00;;;;;;;13.71;100.00;99848.56;5009962;28;20423;-65
2023/07/23 05:27:57;;;;;;;10.75;3.55;;;;;;;13.77;100.00;99851.59;5029772;28;20052;-65
2023/07/23 05:30:23;;;;;;;7.13;3.03;;;;;;;13.85;100.00;99849.31;5027947;28;20456;-65
2023/07/23 05:32:50;;;;;;;7.65;3.33;;;;;;;13.83;100.00;99855.66;5028920;28;20045;-65
2023/07/23 05:35:17;;;;;;;7.75;3.35;;;;;;;13.80;100.00;99855.84;5023685;28;20678;-65
2023/07/23 05:37:44;;;;;;;11.02;3.10;;;;;;;13.86;100.00;99856.28;5025478;28;20475;-65
2023/07/23 05:40:11;;;;;;;8.32;3.13;;;;;;;14.07;100.00;99855.81;5018980;28;20058;-65
2023/07/23 05:42:37;;;;;;;9.93;3.10;;;;;;;14.11;100.00;99846.78;5024615;28;20463;-65
2023/07/23 05:45:04;;;;;;;9.05;3.55;;;;;;;14.18;100.00;99849.81;5019833;28;20049;-65
2023/07/23 05:47:31;;;;;;;11.25;3.15;;;;;;;14.24;100.00;99855.53;5016564;28;20054;-65
2023/07/23 05:49:58;;;;;;;7.32;2.60;;;;;;;14.55;100.00;99858.72;5017960;28;20490;-65
2023/07/23 05:52:25;;;;;;;8.20;3.28;;;;;;;14.44;100.00;99855.97;5019610;28;20046;-65
2023/07/23 05:54:51;;;;;;;7.60;2.58;;;;;;;14.71;100.00;99863.81;5018248;28;20049;-65
2023/07/23 05:57:18;;;;;;;25.80;15.48;;;;;;;14.61;100.00;99860.16;5019069;28;20065;-65
2023/07/23 05:59:45;;;;;;;18.83;8.57;;;;;;;14.68;100.00;99852.63;5028118;28;20521;-65
2023/07/23 06:02:11;;;;;;;11.85;5.25;;;;;;;14.85;100.00;99868.13;5021619;28;20045;-65
2023/07/23 06:04:39;;;;;;;9.23;3.95;;;;;;;15.30;100.00;99868.50;5031009;28;20054;-65
2023/07/23 06:07:06;;;;;;;10.13;3.25;;;;;;;15.68;100.00;99856.13;5031022;28;20057;-65
2023/07/23 06:09:33;;;;;;;9.80;3.60;;;;;;;15.91;100.00;99849.22;5029383;28;20049;-66
2023/07/23 06:12:00;;;;;;;7.68;2.60;;;;;;;16.27;100.00;99853.56;5029046;28;20464;-65
2023/07/23 06:14:26;;;;;;;6.00;2.28;;;;;;;16.80;100.00;99853.03;5025207;28;20507;-65
2023/07/23 06:16:53;;;;;;;7.15;2.22;;;;;;;16.68;100.00;99870.69;5030395;28;20049;-65
2023/07/23 06:19:20;;;;;;;10.75;2.78;;;;;;;16.96;100.00;99859.78;5030281;28;20080;-65
2023/07/23 06:21:47;;;;;;;9.55;2.40;;;;;;;17.02;100.00;99861.97;5025049;28;20049;-65
2023/07/23 06:24:13;;;;;;;5.47;2.10;;;;;;;16.90;100.00;99863.75;5030242;28;20462;-65
2023/07/23 06:26:40;;;;;;;8.23;2.63;;;;;;;17.17;100.00;99870.50;5030382;28;20119;-65
2023/07/23 06:29:07;;;;;;;7.65;2.28;;;;;;;17.12;100.00;99854.97;5030735;28;20053;-65
2023/07/23 06:31:34;;;;;;;7.35;2.60;;;;;;;17.26;100.00;99869.75;5027976;28;20455;-65
2023/07/23 06:34:00;;;;;;;7.47;2.55;;;;;;;17.36;100.00;99870.72;5032695;28;20049;-65
2023/07/23 06:36:27;;;;;;;9.02;2.25;;;;;;;17.65;100.00;99867.53;5039817;28;20068;-65
2023/07/23 06:38:54;;;;;;;8.73;2.28;;;;;;;17.80;100.00;99868.94;5029940;28;20472;-65
2023/07/23 06:41:20;;;;;;;9.23;2.20;;;;;;;17.85;100.00;99873.84;5020845;28;20045;-65
2023/07/23 06:43:47;;;;;;;6.90;2.20;;;;;;;17.40;100.00;99882.72;5027662;28;20060;-65
2023/07/23 06:46:17;;;;;;;6.78;2.10;;;;;;;17.30;100.00;99876.50;5026328;28;20053;-65
2023/07/23 06:48:44;;;;;;;6.70;2.17;;;;;;;17.47;100.00;99877.78;5030147;28;20547;-65
2023/07/23 06:51:11;;;;;;;6.43;2.25;;;;;;;17.72;100.00;99881.09;5022922;28;20053;-65
2023/07/23 06:53:37;;;;;;;7.95;2.30;;;;;;;17.78;100.00;99881.47;5030229;28;20617;-65
2023/07/23 06:56:06;;;;;;;11.30;2.83;;;;;;;17.91;100.00;99889.25;5029794;28;20060;-65
2023/07/23 06:58:35;;;;;;;7.85;2.40;;;;;;;17.97;100.00;99883.47;5030492;28;20054;-65
2023/07/23 07:01:03;;;;;;;6.53;2.10;;;;;;;18.01;100.00;99887.53;5013230;28;20432;-65
2023/07/23 07:03:30;;;;;;;10.38;2.65;;;;;;;18.47;100.00;99889.97;5029196;28;20041;-65
2023/07/23 07:05:59;;;;;;;6.38;2.13;;;;;;;18.44;100.00;99874.34;5029456;28;20446;-66
2023/07/23 07:08:28;;;;;;;6.72;2.22;;;;;;;18.41;100.00;99878.09;5028989;28;20084;-65
2023/07/23 07:11:00;;;;;;;7.28;2.30;;;;;;;18.51;100.00;99894.91;5017338;28;21532;-65
2023/07/23 07:13:28;;;;;;;7.00;2.30;;;;;;;18.35;100.00;99898.00;5022391;28;20418;-65
2023/07/23 07:15:55;;;;;;;7.03;2.38;;;;;;;18.41;100.00;99893.97;5031189;28;20288;-65
2023/07/23 07:18:22;;;;;;;6.07;2.22;;;;;;;18.13;100.00;99903.38;5026047;28;20045;-65
2023/07/23 07:20:58;;;;;;;6.47;1.92;;;;;;;17.79;100.00;99895.53;5016829;28;20053;-65
2023/07/23 07:23:26;;;;;;;7.85;2.35;;;;;;;18.20;100.00;99899.25;5019765;28;20124;-65
2023/07/23 07:25:57;;;;;;;7.93;2.60;;;;;;;18.54;100.00;99897.28;5008902;28;20042;-65
2023/07/23 07:28:25;;;;;;;5.38;1.77;;;;;;;18.96;100.00;99907.91;5011572;28;20419;-65
2023/07/23 07:30:59;;;;;;;6.32;2.10;;;;;;;18.92;100.00;99906.47;5022873;28;20199;-65
2023/07/23 07:33:28;;;;;;;6.80;2.20;;;;;;;19.28;100.00;99916.69;5014371;28;20123;-65
2023/07/23 07:35:57;;;;;;;7.95;2.60;;;;;;;19.14;100.00;99913.44;5011145;28;20053;-65
2023/07/23 07:38:25;;;;;;;8.45;2.45;;;;;;;19.41;100.00;99921.78;5025519;28;20148;-66
2023/07/23 07:40:53;;;;;;;5.93;1.92;;;;;;;19.88;100.00;99914.06;5022533;28;20103;-65
2023/07/23 07:43:19;;;;;;;6.70;2.10;;;;;;;20.01;100.00;99904.03;5010239;28;20041;-65
2023/07/23 07:45:52;;;;;;;6.70;1.77;;;;;;;19.80;100.00;99925.41;5027404;28;20144;-65
2023/07/23 07:48:20;;;;;;;;;;;;;;;19.86;100.00;99932.81;5031899;28;20049;-65
2023/07/23 07:50:58;;;;;;;6.93;2.42;;;;;;;20.02;100.00;99940.25;5029144;28;19975;-66
2023/07/23 07:53:27;;;;;;;6.40;2.42;;;;;;;20.03;100.00;99933.13;5032847;28;20442;-65
2023/07/23 07:55:57;;;;;;;7.18;2.10;;;;;;;20.14;100.00;99930.34;5028545;28;20058;-65
2023/07/23 07:58:25;;;;;;;6.10;2.03;;;;;;;20.10;100.00;99942.22;5037608;28;20447;-65
2023/07/23 08:00:52;;;;;;;5.57;1.98;;;;;;;20.07;100.00;99935.34;5030233;28;20060;-66
2023/07/23 08:03:19;;;;;;;7.43;1.98;;;;;;;19.66;100.00;99933.72;5036738;28;20539;-66
2023/07/23 08:05:46;;;;;;;5.05;2.00;;;;;;;19.60;100.00;99932.47;5035495;28;20422;-65
2023/07/23 08:08:15;;;;;;;5.68;1.90;;;;;;;19.39;100.00;99923.69;5029326;28;20116;-66
2023/07/23 08:10:45;;;;;;;6.70;2.15;;;;;;;19.51;100.00;99950.03;5035507;28;20040;-66
2023/07/23 08:13:15;;;;;;;7.07;2.20;;;;;;;18.95;100.00;99940.69;5030906;28;20045;-65
2023/07/23 08:15:42;;;;;;;7.50;2.65;;;;;;;19.26;100.00;99947.81;5030117;28;21489;-66
2023/07/23 08:18:09;;;;;;;8.18;2.10;;;;;;;19.13;100.00;99943.56;5029772;28;20042;-65
2023/07/23 08:20:39;;;;;;;9.70;2.22;;;;;;;19.40;100.00;99950.13;5011254;28;20487;-65
2023/07/23 08:23:07;;;;;;;5.35;1.90;;;;;;;19.07;100.00;99944.13;5013804;28;20057;-65
2023/07/23 08:25:36;;;;;;;4.60;1.50;;;;;;;19.07;100.00;99943.25;5030375;28;20128;-64
2023/07/23 08:28:04;;;;;;;6.30;2.00;;;;;;;18.87;100.00;99945.81;5012337;28;20487;-65
2023/07/23 08:30:32;;;;;;;5.78;1.90;;;;;;;18.97;100.00;99938.75;5027743;28;20557;-65
2023/07/23 08:33:00;;;;;;;5.55;1.90;;;;;;;19.00;100.00;99947.41;5030223;28;20052;-65
2023/07/23 08:35:29;;;;;;;7.22;2.30;;;;;;;18.86;100.00;99943.31;5029484;28;20143;-65
2023/07/23 08:37:57;;;;;;;6.13;2.05;;;;;;;18.76;100.00;99954.63;5012955;28;20407;-64
2023/07/23 08:40:25;;;;;;;4.88;1.73;;;;;;;19.04;100.00;99949.69;5028510;28;20059;-64
2023/07/23 08:42:54;;;;;;;7.93;2.30;;;;;;;19.29;100.00;99945.75;5030530;28;20398;-65
2023/07/23 08:45:21;;;;;;;6.85;2.13;;;;;;;19.71;100.00;99940.31;5030099;28;20140;-64
2023/07/23 08:47:47;;;;;;;9.05;1.85;;;;;;;19.44;100.00;99953.34;5029694;28;20053;-64
2023/07/23 08:50:14;;;;;;;7.82;2.15;;;;;;;19.15;100.00;99941.63;5024563;28;20136;-65
2023/07/23 08:52:43;;;;;;;6.53;1.75;;;;;;;19.27;100.00;99950.34;5029138;28;20038;-64
2023/07/23 08:55:11;;;;;;;4.50;1.75;;;;;;;19.57;100.00;99956.63;5029257;28;20054;-65
2023/07/23 08:57:39;;;;;;;8.23;2.00;;;;;;;19.52;100.00;99959.66;5030091;28;20651;-65
2023/07/23 09:00:07;;;;;;;7.78;1.90;;;;;;;19.47;100.00;99953.91;5012769;28;20057;-65
2023/07/23 09:02:34;;;;;;;5.65;2.10;;;;;;;19.69;100.00;99966.16;5013838;28;20049;-65
2023/07/23 09:05:01;;;;;;;7.78;2.28;;;;;;;19.23;100.00;99940.13;5029271;28;20072;-65
2023/07/23 09:07:28;;;;;;;6.70;1.92;;;;;;;19.20;100.00;99948.38;5029187;28;20056;-65
2023/07/23 09:09:54;;;;;;;7.57;2.03;;;;;;;19.35;100.00;99954.97;5024617;28;20123;-65
2023/07/23 09:12:21;;;;;;;7.75;2.17;;;;;;;19.40;100.00;99965.22;5028333;28;20475;-65
2023/07/23 09:14:48;;;;;;;5.85;1.90;;;;;;;19.69;100.00;99955.53;5035480;28;20450;-65
2023/07/23 09:17:17;;;;;;;6.10;1.92;;;;;;;20.02;100.00;99974.78;5023505;28;20052;-66
2023/07/23 09:19:44;;;;;;;6.30;1.90;;;;;;;19.73;100.00;99966.72;5008877;28;20141;-65
2023/07/23 09:22:12;;;;;;;8.30;2.30;;;;;;;19.47;100.00;99966.34;5023959;28;20053;-65
2023/07/23 09:24:39;;;;;;;8.15;1.83;;;;;;;19.72;100.00;99978.31;5029540;28;20053;-65
2023/07/23 09:27:09;;;;;;;8.95;2.63;;;;;;;19.35;100.00;99955.84;5029582;28;20418;-65
2023/07/23 09:29:38;;;;;;;8.88;2.65;;;;;;;19.25;100.00;99975.34;5028086;28;20055;-65
2023/07/23 09:32:23;;;;;;;8.00;2.30;;;;;;;19.04;100.00;99957.63;5024781;28;20478;-65
2023/07/23 09:34:49;;;;;;;7.70;2.08;;;;;;;19.02;100.00;99964.06;5029667;28;20049;-65
2023/07/23 09:37:17;;;;;;;8.63;2.05;;;;;;;19.17;100.00;99981.31;5028375;28;20061;-65
2023/07/23 09:39:44;;;;;;;8.55;2.20;;;;;;;18.81;100.00;99975.47;5027946;28;20100;-65
2023/07/23 09:42:11;;;;;;;8.63;2.45;;;;;;;18.97;100.00;99981.19;5028440;28;20419;-65
2023/07/23 09:44:41;;;;;;;11.30;2.90;;;;;;;19.36;100.00;99999.16;5022382;28;20056;-65
2023/07/23 09:47:08;;;;;;;6.40;1.85;;;;;;;19.22;100.00;99984.41;5037571;28;20482;-65
2023/07/23 09:49:36;;;;;;;10.88;2.75;;;;;;;19.22;100.00;100000.31;5027808;28;20053;-65
2023/07/23 09:52:08;;;;;;;14.57;2.50;;;;;;;19.23;100.00;99990.53;5027155;28;20049;-66
2023/07/23 09:54:35;;;;;;;8.15;2.38;;;;;;;18.92;100.00;99987.84;5033440;28;20100;-66
2023/07/23 09:57:02;;;;;;;11.30;2.72;;;;;;;18.99;100.00;99990.84;5028850;28;20053;-66
2023/07/23 09:59:31;;;;;;;10.55;2.53;;;;;;;19.11;100.00;99985.31;5028718;28;20056;-66
2023/07/23 10:01:57;;;;;;;8.63;2.50;;;;;;;18.93;100.00;99990.38;5024636;28;20661;-65
2023/07/23 10:04:28;;;;;;;13.88;2.67;;;;;;;18.75;100.00;99994.53;5042941;28;20071;-65
2023/07/23 10:06:55;;;;;;;11.32;2.45;;;;;;;19.00;100.00;100003.97;5024911;28;20050;-65
2023/07/23 10:09:22;;;;;;;9.00;2.67;;;;;;;18.87;100.00;99996.19;5009326;28;20407;-65
2023/07/23 10:11:49;;;;;;;7.70;2.20;;;;;;;18.95;100.00;99990.25;5023361;28;20049;-65
2023/07/23 10:14:21;;;;;;;7.68;2.20;;;;;;;19.07;100.00;100002.50;5016741;28;20100;-65
2023/07/23 10:16:50;;;;;;;9.40;2.20;;;;;;;19.16;100.00;100000.88;5019838;28;20051;-65
2023/07/23 10:19:20;;;;;;;7.25;2.20;;;;;;;19.06;100.00;99984.88;5028799;28;20053;-65
2023/07/23 10:21:51;;;;;;;7.63;2.58;;;;;;;19.00;100.00;100017.25;5027430;28;20163;-65
2023/07/23 10:24:18;;;;;;;5.82;2.03;;;;;;;19.13;100.00;100009.06;5028490;28;20495;-65
2023/07/23 10:26:48;;;;;;;9.38;2.45;;;;;;;19.18;100.00;100008.69;5019484;28;20049;-65
2023/07/23 10:29:19;;;;;;;7.97;2.33;;;;;;;18.89;100.00;100022.59;5027049;28;20049;-65
2023/07/23 10:31:46;;;;;;;7.13;2.10;;;;;;;18.76;100.00;100009.50;5026876;28;20442;-66
2023/07/23 10:34:21;;;;;;;8.43;2.28;;;;;;;18.63;100.00;100022.06;5017199;28;20052;-65
2023/07/23 10:37:21;;;;;;;10.60;1.98;;;;;;;18.82;100.00;100016.13;5009356;28;20093;-65
2023/07/23 10:39:58;;;;;;;10.10;2.30;;;;;;;18.72;100.00;100008.91;5026136;28;20073;-64
2023/07/23 10:42:44;;;;;;;8.88;2.30;;;;;;;18.88;100.00;100031.53;5010374;28;20049;-65
2023/07/23 10:45:26;;;;;;;6.57;2.10;;;;;;;18.91;100.00;100016.22;5010078;28;20099;-65
2023/07/23 10:47:57;;;;;;;8.45;2.10;;;;;;;18.82;100.00;100016.94;5026127;28;20575;-64
2023/07/23 10:50:31;;;;;;;12.02;2.63;;;;;;;18.87;100.00;100037.81;5008147;28;20071;-64
2023/07/23 10:53:04;;;;;;;6.07;2.00;;;;;;;18.89;100.00;100039.38;5027075;28;20045;-65
2023/07/23 10:55:45;;;;;;;11.40;2.13;;;;;;;19.09;100.00;100037.69;5008255;28;20060;-65
2023/07/23 10:58:21;;;;;;;7.40;2.13;;;;;;;19.01;100.00;100039.31;5026558;28;20067;-64
2023/07/23 11:00:53;;;;;;;8.18;2.08;;;;;;;19.24;100.00;100035.53;5032889;28;20308;-64
2023/07/23 11:03:22;;;;;;;7.65;2.38;;;;;;;19.39;100.00;100028.09;5033952;28;20037;-64
2023/07/23 11:05:51;;;;;;;13.98;2.50;;;;;;;19.00;100.00;100027.00;5013359;28;20368;-64
2023/07/23 11:08:19;;;;;;;10.48;2.47;;;;;;;18.88;100.00;100027.06;5046420;28;20103;-64
2023/07/23 11:10:52;;;;;;;6.38;2.15;;;;;;;19.23;100.00;100033.00;5040173;28;20056;-64
2023/07/23 11:13:20;;;;;;;10.02;2.22;;;;;;;19.04;100.00;100041.69;5048853;28;20049;-64
2023/07/23 11:15:47;;;;;;;7.18;1.90;;;;;;;19.34;100.00;100040.91;5038546;28;20119;-64
2023/07/23 11:18:15;;;;;;;6.32;2.10;;;;;;;19.36;100.00;100036.31;5043319;28;20341;-65
2023/07/23 11:20:46;;;;;;;7.65;1.80;;;;;;;19.78;100.00;100036.25;5028832;28;20053;-64
2023/07/23 11:23:13;;;;;;;7.57;1.98;;;;;;;19.65;100.00;100032.94;5047003;28;20053;-64
2023/07/23 11:25:40;;;;;;;8.40;2.35;;;;;;;19.77;100.00;100055.81;5040970;28;20057;-64